Airport ID:KCXP
Update Time (UTC):21/10/2020 22:41
Wind Speed (Knots):3
Wind Direction (Magnetic):300
Temperature (°C):26
Dew Point (°C):-5
Humidity (%):13
Altimeter (inHg):29.93
Density Altitude (Feet):7000
Visibility:10+
Clouds (Hundreds of feet):CLR
Present Weather:
METAR:METAR KCXP 212240Z AUTO 00000KT 10SM CLR 26/M05 A2993 RMK AO2

The data displayed is for advisory purposes only and is not to be used for flight planning or operations.